createdAt,value
2022-08-29T00:00:04.995Z,7.67
2022-08-29T00:01:08.660Z,8.00
2022-08-29T00:02:10.982Z,8.13
2022-08-29T00:03:13.152Z,7.87
2022-08-29T00:04:15.231Z,7.87
2022-08-29T00:05:24.872Z,6.90
2022-08-29T00:06:26.808Z,8.13
2022-08-29T00:07:28.276Z,6.80
2022-08-29T00:08:30.192Z,7.10
2022-08-29T00:09:31.692Z,8.53
2022-08-29T00:10:35.680Z,7.47
2022-08-29T00:11:37.244Z,7.10
2022-08-29T00:12:45.404Z,7.43
2022-08-29T00:13:47.226Z,7.80
2022-08-29T00:14:49.084Z,7.47
2022-08-29T00:15:50.807Z,6.93
2022-08-29T00:16:52.388Z,8.07
2022-08-29T00:17:54.027Z,6.50
2022-08-29T00:18:55.880Z,7.13
2022-08-29T00:19:58.122Z,7.40
2022-08-29T00:20:59.906Z,7.77
2022-08-29T00:22:01.614Z,7.40
2022-08-29T00:23:06.158Z,6.90
2022-08-29T00:24:07.908Z,7.50
2022-08-29T00:25:11.919Z,7.40
2022-08-29T00:26:14.208Z,7.90
2022-08-29T00:27:15.770Z,7.40
2022-08-29T00:28:17.247Z,8.10
2022-08-29T00:29:19.013Z,6.80
2022-08-29T00:30:22.584Z,7.33
2022-08-29T00:31:24.354Z,7.00
2022-08-29T00:32:26.065Z,7.43
2022-08-29T00:33:28.390Z,7.80
2022-08-29T00:34:30.075Z,7.93
2022-08-29T00:35:35.157Z,8.27
2022-08-29T00:36:37.613Z,7.53
2022-08-29T00:37:40.286Z,8.60
2022-08-29T00:38:42.083Z,7.83
2022-08-29T00:39:45.053Z,7.93
2022-08-29T00:40:51.684Z,7.60
2022-08-29T00:41:54.005Z,7.73
2022-08-29T00:42:55.628Z,7.87
2022-08-29T00:43:57.163Z,8.47
2022-08-29T00:44:58.853Z,8.00
2022-08-29T00:46:19.235Z,8.43
2022-08-29T00:47:26.940Z,7.47
2022-08-29T00:48:30.062Z,7.63
2022-08-29T00:49:41.489Z,8.03
2022-08-29T00:50:48.638Z,8.90
2022-08-29T00:51:51.109Z,7.50
2022-08-29T00:52:55.167Z,7.67
2022-08-29T00:54:01.786Z,7.87
2022-08-29T00:55:10.154Z,7.80
2022-08-29T00:56:15.001Z,7.40
2022-08-29T00:57:19.886Z,7.80
2022-08-29T00:58:44.724Z,7.80
2022-08-29T00:59:47.533Z,7.70
2022-08-29T01:00:49.818Z,7.07
2022-08-29T01:01:51.447Z,7.53
2022-08-29T01:02:54.376Z,7.20
2022-08-29T01:03:56.471Z,7.83
2022-08-29T01:04:59.957Z,7.97
2022-08-29T01:06:03.415Z,7.10
2022-08-29T01:07:06.218Z,7.70
2022-08-29T01:08:07.931Z,8.40
2022-08-29T01:09:10.766Z,8.80
2022-08-29T01:10:33.058Z,7.60
2022-08-29T01:11:53.881Z,8.20
2022-08-29T01:12:55.434Z,8.00
2022-08-29T01:13:57.422Z,7.90
2022-08-29T01:15:04.435Z,8.20
2022-08-29T01:16:08.148Z,7.87
2022-08-29T01:17:10.718Z,8.03
2022-08-29T01:18:15.569Z,8.27
2022-08-29T01:19:41.217Z,8.37
2022-08-29T01:20:54.580Z,7.00
2022-08-29T01:22:35.303Z,7.17
2022-08-29T01:24:11.721Z,7.77
2022-08-29T01:25:19.562Z,7.80
2022-08-29T01:26:23.044Z,7.60
2022-08-29T01:27:29.791Z,7.90
2022-08-29T01:28:37.978Z,7.77
2022-08-29T01:29:40.299Z,7.83
2022-08-29T01:31:38.637Z,8.40
2022-08-29T01:32:43.002Z,7.83
2022-08-29T01:33:56.758Z,9.30
2022-08-29T01:34:58.758Z,8.43
2022-08-29T01:36:00.247Z,8.67
2022-08-29T01:37:04.659Z,7.90
2022-08-29T01:38:06.471Z,8.20
2022-08-29T01:39:08.247Z,7.97
2022-08-29T01:40:12.246Z,8.53
2022-08-29T01:41:14.237Z,8.07
2022-08-29T01:42:22.799Z,8.37
2022-08-29T01:43:25.408Z,9.13
2022-08-29T01:44:27.402Z,8.53
2022-08-29T01:45:29.603Z,7.20
2022-08-29T01:46:34.611Z,8.13
2022-08-29T01:47:37.835Z,8.57
2022-08-29T01:48:41.824Z,8.20
2022-08-29T01:49:43.359Z,8.30
2022-08-29T01:50:46.688Z,7.70
2022-08-29T01:51:48.723Z,8.13
2022-08-29T01:52:50.520Z,8.50
2022-08-29T01:53:53.256Z,8.40
2022-08-29T01:54:54.983Z,8.77
2022-08-29T01:55:56.837Z,8.10
2022-08-29T01:56:58.754Z,7.70
2022-08-29T01:58:00.671Z,8.27
2022-08-29T01:59:05.786Z,7.87
2022-08-29T02:00:10.550Z,8.10
2022-08-29T02:01:15.425Z,7.83
2022-08-29T02:02:27.621Z,7.80
2022-08-29T02:03:29.408Z,7.53
2022-08-29T02:04:31.798Z,7.27
2022-08-29T02:05:34.415Z,7.80
2022-08-29T02:06:36.804Z,8.27
2022-08-29T02:07:38.371Z,9.33
2022-08-29T02:08:42.337Z,8.47
2022-08-29T02:09:45.652Z,7.70
2022-08-29T02:10:48.199Z,8.20
2022-08-29T02:11:50.015Z,7.20
2022-08-29T02:12:53.939Z,8.33
2022-08-29T02:13:57.723Z,7.43
2022-08-29T02:14:59.815Z,7.47
2022-08-29T02:16:01.483Z,8.03
2022-08-29T02:17:05.125Z,7.47
2022-08-29T02:18:06.588Z,7.73
2022-08-29T02:19:08.826Z,8.23
2022-08-29T02:20:10.687Z,8.30
2022-08-29T02:21:15.249Z,7.30
2022-08-29T02:22:17.397Z,7.60
2022-08-29T02:23:30.592Z,8.10
2022-08-29T02:24:33.137Z,8.00
2022-08-29T02:25:43.849Z,7.53
2022-08-29T02:26:45.701Z,7.77
2022-08-29T02:27:47.649Z,7.63
2022-08-29T02:28:52.873Z,7.43
2022-08-29T02:29:55.050Z,7.73
2022-08-29T02:30:56.995Z,8.07
2022-08-29T02:31:58.719Z,7.43
2022-08-29T02:33:00.567Z,7.60
2022-08-29T02:34:05.006Z,7.90
2022-08-29T02:35:07.561Z,8.00
2022-08-29T02:36:11.409Z,8.37
2022-08-29T02:37:13.274Z,9.10
2022-08-29T02:38:16.019Z,7.37
2022-08-29T02:39:18.339Z,8.40
2022-08-29T02:40:20.025Z,8.67
2022-08-29T02:41:26.204Z,8.13
2022-08-29T02:42:27.918Z,7.47
2022-08-29T02:43:29.488Z,7.73
2022-08-29T02:44:31.724Z,7.60
2022-08-29T02:45:35.816Z,7.60
2022-08-29T02:46:37.779Z,7.93
2022-08-29T02:47:39.366Z,7.60
2022-08-29T02:48:41.183Z,8.37
2022-08-29T02:49:49.231Z,8.50
2022-08-29T02:50:54.256Z,7.97
2022-08-29T02:51:56.636Z,7.17
2022-08-29T02:52:58.857Z,7.90
2022-08-29T02:54:01.549Z,7.33
2022-08-29T02:55:03.353Z,7.37
2022-08-29T02:56:05.153Z,8.10
2022-08-29T02:57:09.790Z,7.40
2022-08-29T02:58:11.597Z,7.90
2022-08-29T02:59:14.302Z,7.53
2022-08-29T03:00:21.770Z,7.30
2022-08-29T03:01:24.148Z,7.47
2022-08-29T03:02:25.857Z,8.10
2022-08-29T03:03:27.942Z,7.70
2022-08-29T03:04:29.655Z,7.83
2022-08-29T03:05:34.934Z,8.80
2022-08-29T03:06:36.390Z,8.13
2022-08-29T03:07:38.115Z,7.80
2022-08-29T03:08:40.589Z,7.83
2022-08-29T03:09:42.659Z,7.10
2022-08-29T03:10:44.338Z,8.40
2022-08-29T03:11:46.276Z,8.53
2022-08-29T03:12:47.857Z,8.40
2022-08-29T03:13:49.320Z,7.97
2022-08-29T03:14:51.421Z,8.10
2022-08-29T03:15:53.814Z,7.80
2022-08-29T03:16:55.852Z,8.80
2022-08-29T03:17:58.326Z,8.40
2022-08-29T03:18:59.790Z,8.50
2022-08-29T03:20:02.350Z,8.10
2022-08-29T03:21:04.671Z,8.80
2022-08-29T03:22:06.107Z,7.70
2022-08-29T03:23:08.357Z,8.30
2022-08-29T03:24:10.192Z,7.50
2022-08-29T03:25:12.744Z,7.57
2022-08-29T03:26:14.815Z,8.00
2022-08-29T03:27:16.293Z,8.50
2022-08-29T03:28:17.898Z,7.70
2022-08-29T03:29:19.442Z,8.37
2022-08-29T03:30:24.095Z,8.87
2022-08-29T03:31:25.732Z,8.27
2022-08-29T03:32:27.903Z,8.60
2022-08-29T03:33:29.526Z,8.60
2022-08-29T03:34:33.006Z,7.60
2022-08-29T03:35:34.516Z,8.37
2022-08-29T03:36:36.047Z,8.50
2022-08-29T03:37:38.330Z,8.30
2022-08-29T03:38:39.884Z,6.90
2022-08-29T03:39:41.480Z,7.90
2022-08-29T03:40:43.042Z,8.03
2022-08-29T03:41:44.556Z,8.37
2022-08-29T03:42:47.666Z,7.30
2022-08-29T03:43:49.197Z,9.20
2022-08-29T03:44:50.679Z,7.90
2022-08-29T03:45:52.831Z,7.50
2022-08-29T03:46:54.450Z,8.90
2022-08-29T03:47:55.930Z,9.40
2022-08-29T03:48:57.436Z,8.23
2022-08-29T03:49:58.880Z,8.40
2022-08-29T03:51:00.535Z,8.07
2022-08-29T03:52:02.965Z,8.60
2022-08-29T03:53:04.481Z,7.90
2022-08-29T03:54:06.820Z,8.13
2022-08-29T03:55:09.153Z,8.63
2022-08-29T03:56:18.149Z,8.83
2022-08-29T03:57:20.511Z,8.33
2022-08-29T03:58:22.056Z,9.00
2022-08-29T03:59:24.542Z,8.90
2022-08-29T04:00:26.326Z,9.00
2022-08-29T04:01:29.671Z,8.80
2022-08-29T04:02:31.581Z,8.30
2022-08-29T04:03:33.203Z,8.40
2022-08-29T04:04:53.516Z,8.23
2022-08-29T04:05:55.209Z,9.23
2022-08-29T04:06:56.922Z,9.13
2022-08-29T04:07:59.603Z,8.90
2022-08-29T04:09:01.118Z,8.30
2022-08-29T04:10:08.458Z,8.20
2022-08-29T04:11:11.214Z,9.73
2022-08-29T04:12:13.740Z,8.80
2022-08-29T04:13:15.872Z,9.93
2022-08-29T04:14:18.369Z,9.20
2022-08-29T04:15:21.123Z,9.13
2022-08-29T04:16:31.188Z,8.67
2022-08-29T04:17:33.419Z,9.20
2022-08-29T04:18:34.845Z,7.93
2022-08-29T04:19:37.106Z,9.60
2022-08-29T04:20:41.699Z,9.07
2022-08-29T04:21:43.224Z,9.10
2022-08-29T04:22:45.419Z,9.90
2022-08-29T04:23:48.064Z,9.70
2022-08-29T04:24:49.694Z,9.33
2022-08-29T04:25:59.110Z,9.73
2022-08-29T04:27:13.108Z,9.33
2022-08-29T04:28:17.795Z,8.90
2022-08-29T04:29:19.272Z,9.30
2022-08-29T04:30:24.547Z,8.60
2022-08-29T04:31:26.330Z,8.13
2022-08-29T04:32:28.068Z,9.23
2022-08-29T04:33:29.912Z,9.00
2022-08-29T04:34:32.086Z,9.60
2022-08-29T04:35:37.234Z,8.80
2022-08-29T04:36:43.432Z,8.50
2022-08-29T04:37:45.642Z,10.10
2022-08-29T04:38:47.091Z,9.30
2022-08-29T04:39:48.536Z,8.83
2022-08-29T04:40:50.600Z,8.70
2022-08-29T04:41:52.610Z,8.10
2022-08-29T04:42:54.485Z,8.77
2022-08-29T04:43:56.020Z,9.20
2022-08-29T04:44:58.163Z,7.77
2022-08-29T04:46:00.298Z,9.17
2022-08-29T04:47:01.808Z,9.10
2022-08-29T04:48:04.464Z,9.13
2022-08-29T04:49:05.951Z,9.47
2022-08-29T04:50:10.630Z,8.60
2022-08-29T04:51:12.074Z,9.57
2022-08-29T04:52:14.067Z,9.90
2022-08-29T04:53:15.539Z,9.60
2022-08-29T04:54:17.410Z,10.27
2022-08-29T04:55:24.504Z,10.20
2022-08-29T04:56:27.247Z,9.97
2022-08-29T04:57:29.314Z,10.20
2022-08-29T04:58:31.501Z,9.97
2022-08-29T04:59:33.324Z,9.20
2022-08-29T05:00:34.880Z,9.43
2022-08-29T05:01:36.673Z,9.53
2022-08-29T05:02:40.016Z,9.63
2022-08-29T05:03:41.694Z,9.00
2022-08-29T05:04:44.004Z,8.77
2022-08-29T05:05:45.529Z,9.60
2022-08-29T05:06:46.942Z,9.40
2022-08-29T05:07:48.683Z,9.27
2022-08-29T05:08:59.036Z,9.37
2022-08-29T05:10:06.926Z,9.07
2022-08-29T05:11:12.959Z,9.43
2022-08-29T05:12:14.771Z,8.37
2022-08-29T05:13:16.333Z,9.23
2022-08-29T05:14:18.124Z,8.07
2022-08-29T05:15:20.211Z,8.90
2022-08-29T05:16:21.763Z,9.77
2022-08-29T05:17:24.282Z,8.70
2022-08-29T05:18:26.199Z,9.10
2022-08-29T05:19:28.096Z,8.50
2022-08-29T05:20:38.903Z,9.07
2022-08-29T05:21:40.832Z,9.93
2022-08-29T05:22:42.978Z,8.70
2022-08-29T05:23:44.465Z,9.47
2022-08-29T05:24:47.228Z,8.43
2022-08-29T05:25:59.890Z,8.57
2022-08-29T05:27:01.393Z,8.47
2022-08-29T05:28:03.917Z,10.00
2022-08-29T05:29:09.513Z,10.33
2022-08-29T05:30:11.519Z,9.90
2022-08-29T05:31:14.669Z,9.73
2022-08-29T05:32:17.551Z,9.37
2022-08-29T05:33:19.534Z,8.73
2022-08-29T05:34:33.892Z,10.23
2022-08-29T05:35:36.103Z,9.07
2022-08-29T05:36:37.592Z,8.87
2022-08-29T05:37:39.087Z,8.33
2022-08-29T05:38:40.675Z,9.50
2022-08-29T05:39:42.677Z,10.23
2022-08-29T05:40:44.197Z,9.33
2022-08-29T05:41:46.266Z,8.30
2022-08-29T05:42:48.207Z,9.20
2022-08-29T05:43:51.206Z,9.10
2022-08-29T05:44:52.874Z,8.80
2022-08-29T05:46:02.970Z,8.30
2022-08-29T05:47:07.653Z,10.10
2022-08-29T05:48:10.137Z,8.90
2022-08-29T05:49:11.662Z,9.03
2022-08-29T05:50:16.822Z,8.90
2022-08-29T05:51:20.848Z,8.77
2022-08-29T05:52:22.791Z,9.43
2022-08-29T05:53:25.113Z,9.10
2022-08-29T05:54:30.096Z,9.53
2022-08-29T05:55:31.873Z,8.90
2022-08-29T05:56:33.351Z,9.23
2022-08-29T05:57:35.307Z,9.50
2022-08-29T05:58:37.161Z,9.00
2022-08-29T05:59:39.020Z,8.60
2022-08-29T06:00:42.443Z,8.67
2022-08-29T06:01:46.140Z,8.67
2022-08-29T06:02:48.120Z,9.57
2022-08-29T06:03:53.950Z,9.37
2022-08-29T06:04:57.450Z,8.57
2022-08-29T06:05:58.978Z,8.97
2022-08-29T06:07:00.998Z,8.10
2022-08-29T06:08:02.797Z,8.07
2022-08-29T06:09:05.021Z,8.73
2022-08-29T06:10:09.067Z,9.17
2022-08-29T06:11:15.649Z,9.27
2022-08-29T06:12:17.719Z,8.23
2022-08-29T06:13:19.197Z,8.90
2022-08-29T06:14:21.294Z,8.30
2022-08-29T06:15:23.589Z,8.57
2022-08-29T06:16:27.133Z,7.97
2022-08-29T06:17:28.637Z,8.30
2022-08-29T06:18:36.109Z,8.60
2022-08-29T06:19:39.512Z,7.83
2022-08-29T06:20:41.316Z,7.97
2022-08-29T06:21:42.794Z,8.70
2022-08-29T06:22:44.282Z,8.27
2022-08-29T06:23:46.924Z,10.00
2022-08-29T06:24:51.686Z,8.50
2022-08-29T06:25:59.915Z,8.30
2022-08-29T06:27:02.548Z,8.23
2022-08-29T06:28:04.435Z,8.70
2022-08-29T06:29:08.468Z,9.47
2022-08-29T06:30:10.133Z,9.40
2022-08-29T06:31:17.766Z,10.17
2022-08-29T06:32:19.562Z,9.80
2022-08-29T06:33:21.110Z,11.83
2022-08-29T06:34:23.470Z,13.07
2022-08-29T06:35:25.233Z,15.10
2022-08-29T06:36:27.769Z,13.37
2022-08-29T06:37:29.733Z,14.00
2022-08-29T06:38:31.451Z,13.00
2022-08-29T06:39:33.483Z,13.37
2022-08-29T06:40:34.966Z,14.00
2022-08-29T06:41:38.422Z,13.20
2022-08-29T06:42:40.927Z,12.70
2022-08-29T06:43:43.947Z,12.47
2022-08-29T06:44:45.762Z,12.27
2022-08-29T06:45:47.222Z,13.43
2022-08-29T06:46:49.787Z,12.30
2022-08-29T06:47:51.511Z,11.50
2022-08-29T06:48:53.817Z,11.77
2022-08-29T06:49:55.680Z,12.93
2022-08-29T06:50:57.653Z,11.60
2022-08-29T06:51:59.714Z,11.93
2022-08-29T06:53:26.500Z,11.53
2022-08-29T06:54:25.504Z,12.60
2022-08-29T06:55:30.187Z,12.10
2022-08-29T06:56:31.998Z,9.90
2022-08-29T06:57:33.474Z,10.50
2022-08-29T06:58:36.168Z,11.50
2022-08-29T06:59:37.786Z,12.60
2022-08-29T07:00:47.477Z,11.97
2022-08-29T07:01:51.694Z,10.13
2022-08-29T07:02:53.928Z,11.67
2022-08-29T07:03:56.880Z,11.70
2022-08-29T07:04:58.881Z,11.37
2022-08-29T07:06:00.485Z,10.93
2022-08-29T07:07:01.982Z,11.70
2022-08-29T07:08:03.920Z,11.23
2022-08-29T07:09:06.305Z,11.50
2022-08-29T07:10:08.540Z,11.17
2022-08-29T07:11:11.548Z,11.43
2022-08-29T07:12:13.003Z,11.90
2022-08-29T07:13:14.596Z,10.60
2022-08-29T07:14:16.580Z,10.77
2022-08-29T07:15:19.155Z,10.70
2022-08-29T07:16:20.817Z,11.33
2022-08-29T07:17:25.668Z,10.83
2022-08-29T07:18:27.777Z,11.23
2022-08-29T07:19:29.534Z,10.70
2022-08-29T07:20:31.253Z,11.17
2022-08-29T07:21:33.508Z,10.90
2022-08-29T07:22:35.557Z,11.10
2022-08-29T07:23:37.539Z,12.37
2022-08-29T07:24:39.118Z,10.73
2022-08-29T07:25:40.880Z,11.00
2022-08-29T07:26:43.741Z,10.20
2022-08-29T07:27:46.097Z,11.23
2022-08-29T07:28:55.837Z,10.63
2022-08-29T07:29:57.870Z,10.70
2022-08-29T07:30:59.373Z,11.33
2022-08-29T07:32:02.364Z,11.23
2022-08-29T07:33:03.968Z,9.50
2022-08-29T07:34:06.284Z,11.53
2022-08-29T07:35:11.566Z,11.03
2022-08-29T07:36:15.138Z,11.37
2022-08-29T07:37:16.630Z,10.60
2022-08-29T07:38:18.152Z,11.57
2022-08-29T07:39:20.439Z,10.13
2022-08-29T07:40:22.380Z,10.90
2022-08-29T07:41:25.170Z,9.87
2022-08-29T07:42:27.856Z,10.23
2022-08-29T07:43:29.626Z,9.73
2022-08-29T07:44:34.359Z,10.10
2022-08-29T07:45:39.152Z,9.93
2022-08-29T07:46:41.355Z,9.60
2022-08-29T07:47:42.815Z,10.03
2022-08-29T07:48:45.699Z,10.73
2022-08-29T07:49:47.241Z,9.87
2022-08-29T07:50:49.986Z,9.90
2022-08-29T07:51:53.524Z,10.33
2022-08-29T07:52:55.069Z,9.50
2022-08-29T07:53:58.160Z,9.77
2022-08-29T07:55:00.161Z,9.13
2022-08-29T07:56:06.809Z,10.50
2022-08-29T07:57:08.354Z,10.17
2022-08-29T07:58:10.830Z,9.83
2022-08-29T07:59:12.698Z,9.47
2022-08-29T08:00:14.731Z,9.47
2022-08-29T08:01:20.983Z,9.67
2022-08-29T08:02:23.257Z,10.17
2022-08-29T08:03:27.095Z,8.80
2022-08-29T08:04:28.554Z,8.90
2022-08-29T08:05:30.819Z,10.17
2022-08-29T08:06:34.502Z,12.23
2022-08-29T08:07:40.069Z,9.50
2022-08-29T08:08:41.845Z,10.27
2022-08-29T08:09:43.328Z,10.63
2022-08-29T08:10:47.878Z,10.07
2022-08-29T08:11:53.479Z,8.77
2022-08-29T08:12:54.981Z,9.83
2022-08-29T08:13:57.480Z,9.90
2022-08-29T08:14:59.073Z,9.40
2022-08-29T08:16:11.584Z,10.03
2022-08-29T08:17:13.060Z,9.50
2022-08-29T08:18:15.266Z,8.87
2022-08-29T08:19:18.214Z,8.97
2022-08-29T08:20:19.855Z,8.87
2022-08-29T08:21:22.557Z,9.90
2022-08-29T08:22:24.011Z,9.50
2022-08-29T08:23:25.994Z,9.50
2022-08-29T08:24:27.506Z,10.40
2022-08-29T08:25:29.369Z,10.50
2022-08-29T08:26:31.111Z,9.30
2022-08-29T08:27:33.105Z,8.47
2022-08-29T08:28:35.299Z,9.83
2022-08-29T08:29:37.170Z,9.47
2022-08-29T08:30:38.987Z,9.53
2022-08-29T08:31:45.780Z,9.50
2022-08-29T08:32:54.096Z,10.13
2022-08-29T08:33:56.643Z,9.43
2022-08-29T08:34:58.124Z,10.57
2022-08-29T08:35:59.603Z,9.30
2022-08-29T08:37:01.649Z,9.50
2022-08-29T08:38:04.127Z,10.13
2022-08-29T08:39:05.715Z,9.20
2022-08-29T08:40:08.152Z,9.80
2022-08-29T08:41:29.303Z,9.83
2022-08-29T08:42:42.360Z,9.80
2022-08-29T08:43:48.960Z,9.23
2022-08-29T08:45:05.991Z,9.53
2022-08-29T08:46:08.236Z,9.10
2022-08-29T08:47:12.573Z,9.80
2022-08-29T08:48:26.011Z,9.87
2022-08-29T08:49:36.689Z,10.17
2022-08-29T08:50:54.900Z,9.90
2022-08-29T08:52:03.675Z,9.17
2022-08-29T08:53:22.061Z,9.67
2022-08-29T08:54:36.764Z,9.53
2022-08-29T08:55:42.820Z,9.07
2022-08-29T08:56:47.745Z,10.20
2022-08-29T08:58:12.696Z,8.90
2022-08-29T08:59:30.907Z,9.20
2022-08-29T09:00:43.148Z,9.37
2022-08-29T09:01:58.518Z,8.47
2022-08-29T09:03:13.035Z,9.00
2022-08-29T09:04:42.360Z,8.70
2022-08-29T09:06:18.909Z,9.60
2022-08-29T09:07:44.526Z,9.40
2022-08-29T09:08:55.508Z,8.73
2022-08-29T09:10:01.233Z,8.93
2022-08-29T09:11:13.337Z,9.40
2022-08-29T09:12:45.517Z,10.43
2022-08-29T09:14:06.048Z,9.53
2022-08-29T09:15:13.349Z,8.90
2022-08-29T09:16:27.434Z,9.50
2022-08-29T09:17:37.110Z,9.73
2022-08-29T09:18:41.612Z,9.50
2022-08-29T09:19:44.289Z,8.50
2022-08-29T09:20:46.172Z,9.32
2022-08-29T09:21:53.958Z,8.80
2022-08-29T09:23:22.372Z,8.17
2022-08-29T09:24:35.955Z,7.90
2022-08-29T09:25:37.629Z,9.75
2022-08-29T09:26:39.834Z,9.20
2022-08-29T09:27:41.448Z,9.48
2022-08-29T09:28:43.030Z,9.07
2022-08-29T09:29:45.514Z,8.77
2022-08-29T09:31:25.317Z,8.80
2022-08-29T09:32:27.248Z,9.13
2022-08-29T09:33:42.794Z,9.32
2022-08-29T09:35:08.040Z,8.25
2022-08-29T09:36:14.960Z,9.23
2022-08-29T09:37:37.110Z,8.20
2022-08-29T09:38:38.692Z,9.35
2022-08-29T09:39:53.914Z,8.73
2022-08-29T09:40:59.090Z,8.13
2022-08-29T09:42:00.953Z,8.77
2022-08-29T09:43:03.026Z,8.20
2022-08-29T09:44:05.228Z,8.18
2022-08-29T09:45:15.874Z,7.75
2022-08-29T09:46:24.958Z,10.27
2022-08-29T09:47:27.520Z,8.88
2022-08-29T09:48:32.183Z,8.48
2022-08-29T09:49:39.915Z,7.93
2022-08-29T09:50:42.568Z,9.27
2022-08-29T09:51:50.589Z,10.38
2022-08-29T09:53:00.657Z,8.35
2022-08-29T09:54:28.248Z,8.07
2022-08-29T09:55:29.748Z,8.20
2022-08-29T09:56:31.341Z,8.75
2022-08-29T09:57:33.541Z,7.15
2022-08-29T09:58:40.113Z,8.80
2022-08-29T10:00:05.077Z,8.50
2022-08-29T10:01:11.778Z,7.85
2022-08-29T10:02:44.169Z,8.00
2022-08-29T10:04:02.391Z,9.98
2022-08-29T10:05:12.086Z,9.60
2022-08-29T10:06:20.005Z,8.45
2022-08-29T10:07:30.783Z,8.07
2022-08-29T10:08:36.347Z,9.02
2022-08-29T10:09:37.926Z,7.90
2022-08-29T10:10:54.565Z,7.95
2022-08-29T10:12:04.233Z,8.68
2022-08-29T10:13:22.973Z,8.90
2022-08-29T10:14:54.744Z,8.32
2022-08-29T10:16:18.961Z,9.68
2022-08-29T10:17:57.017Z,8.35
2022-08-29T10:19:06.684Z,7.78
2022-08-29T10:20:11.624Z,8.50
2022-08-29T10:21:28.207Z,8.55
2022-08-29T10:22:33.249Z,8.30
2022-08-29T10:23:49.720Z,7.95
2022-08-29T10:25:18.568Z,9.20
2022-08-29T10:26:57.642Z,8.88
2022-08-29T10:28:29.683Z,8.45
2022-08-29T10:29:48.006Z,7.90
2022-08-29T10:31:01.713Z,8.18
2022-08-29T10:32:09.723Z,8.23
2022-08-29T10:33:33.523Z,7.95
2022-08-29T10:35:02.702Z,8.20
2022-08-29T10:36:12.741Z,9.77
2022-08-29T10:37:36.671Z,8.23
2022-08-29T10:38:45.796Z,8.93
2022-08-29T10:40:09.673Z,8.57
2022-08-29T10:41:32.612Z,8.23
2022-08-29T10:42:38.543Z,8.45
2022-08-29T10:43:51.713Z,8.32
2022-08-29T10:45:05.559Z,8.07
2022-08-29T10:46:16.798Z,8.55
2022-08-29T10:47:41.052Z,8.43
2022-08-29T10:48:49.028Z,7.63
2022-08-29T10:49:53.379Z,8.07
2022-08-29T10:51:25.333Z,8.25
2022-08-29T10:52:40.206Z,8.57
2022-08-29T10:53:46.069Z,8.43
2022-08-29T10:54:56.234Z,9.13
2022-08-29T10:56:07.339Z,8.07
2022-08-29T10:57:10.443Z,8.65
2022-08-29T10:58:23.315Z,8.38
2022-08-29T10:59:30.553Z,7.90
2022-08-29T11:00:43.962Z,8.68
2022-08-29T11:02:34.215Z,8.10
2022-08-29T11:03:55.352Z,7.93
2022-08-29T11:05:02.693Z,7.38
2022-08-29T11:06:27.091Z,7.75
2022-08-29T11:07:33.219Z,8.10
2022-08-29T11:09:15.597Z,8.82
2022-08-29T11:10:21.267Z,7.88
2022-08-29T11:11:25.404Z,8.40
2022-08-29T11:12:33.623Z,7.32
2022-08-29T11:13:45.244Z,8.38
2022-08-29T11:14:49.382Z,7.57
2022-08-29T11:16:21.336Z,8.35
2022-08-29T11:17:29.913Z,7.57
2022-08-29T11:19:22.207Z,7.20
2022-08-29T11:20:31.795Z,8.02
2022-08-29T11:21:59.143Z,7.55
2022-08-29T11:23:13.266Z,8.45
2022-08-29T11:24:17.505Z,7.55
2022-08-29T11:25:20.488Z,7.55
2022-08-29T11:26:40.522Z,7.72
2022-08-29T11:28:00.426Z,8.40
2022-08-29T11:29:13.216Z,8.02
2022-08-29T11:30:27.830Z,7.93
2022-08-29T11:31:46.602Z,7.97
2022-08-29T11:33:00.159Z,9.55
2022-08-29T11:34:06.345Z,7.85
2022-08-29T11:35:45.246Z,8.68
2022-08-29T11:36:55.443Z,7.85
2022-08-29T11:38:14.474Z,7.78
2022-08-29T11:39:42.647Z,8.30
2022-08-29T11:44:17.008Z,6.90
2022-08-29T11:45:35.690Z,7.88
2022-08-29T11:46:49.394Z,7.30
2022-08-29T11:48:10.334Z,7.30
2022-08-29T11:49:38.834Z,7.82
2022-08-29T11:50:40.714Z,7.63
2022-08-29T11:51:43.191Z,7.85
2022-08-29T11:53:09.880Z,7.68
2022-08-29T11:54:26.653Z,7.97
2022-08-29T11:55:32.649Z,7.35
2022-08-29T11:56:34.122Z,7.63
2022-08-29T11:57:35.686Z,7.43
2022-08-29T11:58:42.874Z,8.38
2022-08-29T11:59:56.617Z,8.20
2022-08-29T12:00:59.541Z,7.75
2022-08-29T12:02:01.521Z,8.02
2022-08-29T12:03:14.985Z,8.30
2022-08-29T12:05:01.383Z,7.45
2022-08-29T12:06:12.348Z,7.85
2022-08-29T12:07:13.871Z,7.43
2022-08-29T12:08:37.368Z,7.78
2022-08-29T12:09:53.715Z,7.15
2022-08-29T12:10:56.230Z,6.82
2022-08-29T12:12:08.609Z,8.13
2022-08-29T12:13:10.540Z,7.32
2022-08-29T12:14:38.046Z,7.70
2022-08-29T12:15:54.199Z,8.10
2022-08-29T12:16:56.151Z,7.85
2022-08-29T12:18:02.881Z,7.25
2022-08-29T12:19:05.082Z,8.13
2022-08-29T12:20:38.130Z,7.60
2022-08-29T12:21:39.604Z,8.32
2022-08-29T12:22:55.508Z,8.80
2022-08-29T12:23:57.320Z,7.13
2022-08-29T12:24:58.817Z,7.53
2022-08-29T12:26:22.044Z,7.97
2022-08-29T12:27:55.846Z,7.80
2022-08-29T12:29:00.167Z,7.50
2022-08-29T12:30:02.179Z,7.72
2022-08-29T12:31:24.582Z,8.05
2022-08-29T12:32:45.874Z,7.38
2022-08-29T12:33:58.412Z,7.00
2022-08-29T12:35:27.417Z,7.90
2022-08-29T12:36:51.940Z,6.93
2022-08-29T12:38:12.214Z,7.38
2022-08-29T12:39:38.969Z,8.10
2022-08-29T12:40:47.973Z,7.35
2022-08-29T12:42:21.377Z,7.40
2022-08-29T12:43:42.943Z,7.00
2022-08-29T12:44:48.425Z,7.65
2022-08-29T12:45:51.195Z,6.93
2022-08-29T12:47:02.450Z,8.32
2022-08-29T12:48:12.566Z,8.05
2022-08-29T12:49:24.580Z,7.55
2022-08-29T12:50:30.448Z,7.95
2022-08-29T12:51:41.141Z,7.45
2022-08-29T12:52:42.896Z,7.80
2022-08-29T12:53:49.868Z,7.68
2022-08-29T12:54:56.134Z,7.80
2022-08-29T12:56:00.707Z,8.35
2022-08-29T12:57:03.353Z,7.25
2022-08-29T12:58:05.126Z,7.82
2022-08-29T12:59:06.924Z,7.18
2022-08-29T13:00:15.810Z,7.07
2022-08-29T13:01:22.576Z,7.30
2022-08-29T13:02:31.752Z,7.88
2022-08-29T13:03:33.638Z,7.63
2022-08-29T13:04:36.699Z,7.43
2022-08-29T13:05:40.347Z,7.80
2022-08-29T13:07:05.496Z,7.20
2022-08-29T13:08:13.672Z,8.13
2022-08-29T13:09:30.043Z,7.57
2022-08-29T13:10:31.542Z,7.97
2022-08-29T13:11:33.555Z,7.80
2022-08-29T13:12:36.072Z,8.02
2022-08-29T13:13:37.978Z,7.88
2022-08-29T13:15:04.182Z,7.80
2022-08-29T13:16:08.551Z,7.22
2022-08-29T13:17:15.333Z,8.07
2022-08-29T13:18:17.470Z,8.10
2022-08-29T13:19:22.035Z,7.20
2022-08-29T13:20:43.032Z,7.32
2022-08-29T13:21:45.259Z,7.85
2022-08-29T13:22:46.725Z,8.27
2022-08-29T13:24:19.280Z,8.50
2022-08-29T13:25:20.826Z,7.97
2022-08-29T13:26:24.669Z,7.40
2022-08-29T13:27:26.218Z,9.00
2022-08-29T13:28:46.577Z,7.30
2022-08-29T13:29:48.495Z,7.35
2022-08-29T13:31:10.990Z,7.18
2022-08-29T13:32:23.894Z,7.75
2022-08-29T13:33:35.594Z,7.78
2022-08-29T13:34:37.990Z,7.38
2022-08-29T13:35:39.478Z,7.72
2022-08-29T13:36:59.092Z,8.38
2022-08-29T13:38:26.321Z,7.47
2022-08-29T13:39:34.436Z,7.38
2022-08-29T13:40:50.550Z,7.15
2022-08-29T13:41:57.697Z,7.53
2022-08-29T13:43:01.103Z,7.00
2022-08-29T13:44:02.901Z,7.43
2022-08-29T13:45:09.340Z,7.97
2022-08-29T13:46:15.189Z,8.02
2022-08-29T13:47:20.542Z,7.47
2022-08-29T13:48:26.867Z,7.32
2022-08-29T13:49:31.633Z,8.07
2022-08-29T13:50:33.130Z,7.68
2022-08-29T13:51:34.710Z,7.63
2022-08-29T13:52:36.499Z,6.93
2022-08-29T13:53:38.393Z,7.65
2022-08-29T13:54:42.283Z,7.22
2022-08-29T13:55:44.066Z,7.15
2022-08-29T13:56:50.122Z,7.15
2022-08-29T13:57:53.497Z,7.78
2022-08-29T13:58:55.505Z,7.20
2022-08-29T14:00:01.419Z,7.18
2022-08-29T14:02:29.578Z,7.25
2022-08-29T14:03:31.244Z,6.82
2022-08-29T14:04:38.571Z,7.78
2022-08-29T14:05:41.229Z,7.40
2022-08-29T14:06:43.089Z,7.40
2022-08-29T14:07:45.829Z,7.28
2022-08-29T14:08:48.418Z,6.50
2022-08-29T14:09:51.070Z,7.28
2022-08-29T14:10:52.643Z,7.03
2022-08-29T14:11:54.214Z,7.78
2022-08-29T14:12:55.711Z,6.30
2022-08-29T14:13:57.172Z,6.78
2022-08-29T14:14:59.149Z,6.53
2022-08-29T14:16:01.223Z,6.85
2022-08-29T14:17:02.830Z,7.43
2022-08-29T14:18:05.051Z,6.82
2022-08-29T14:19:06.566Z,7.50
2022-08-29T14:20:09.838Z,6.72
2022-08-29T14:21:12.050Z,6.78
2022-08-29T14:22:13.911Z,6.85
2022-08-29T14:23:16.148Z,7.00
2022-08-29T14:24:19.150Z,6.55
2022-08-29T14:25:23.591Z,6.78
2022-08-29T14:26:26.292Z,7.30
2022-08-29T14:27:27.825Z,6.60
2022-08-29T14:28:29.310Z,6.60
2022-08-29T14:29:32.656Z,6.45
2022-08-29T14:30:34.272Z,6.60
2022-08-29T14:31:36.451Z,6.72
2022-08-29T14:32:38.382Z,7.47
2022-08-29T14:33:40.921Z,6.82
2022-08-29T14:34:50.925Z,7.53
2022-08-29T14:35:53.666Z,6.65
2022-08-29T14:36:55.174Z,7.28
2022-08-29T14:37:58.372Z,6.72
2022-08-29T14:39:00.302Z,7.05
2022-08-29T14:40:03.823Z,7.15
2022-08-29T14:41:07.032Z,7.20
2022-08-29T14:42:08.861Z,6.28
2022-08-29T14:43:10.550Z,6.60
2022-08-29T14:44:20.074Z,6.85
2022-08-29T14:45:22.616Z,6.95